sensor_id;sensor_type;location;lat;lon;timestamp;P1;durP1;ratioP1;P2;durP2;ratioP2
21521;SDS011;10922;45.572;10.002;2023-02-10T00:03:31;35.43;;;23.33;;
21521;SDS011;10922;45.572;10.002;2023-02-10T00:05:58;33.88;;;23.58;;
21521;SDS011;10922;45.572;10.002;2023-02-10T00:08:24;29.55;;;21.25;;
21521;SDS011;10922;45.572;10.002;2023-02-10T00:10:50;31.45;;;22.77;;
21521;SDS011;10922;45.572;10.002;2023-02-10T00:13:16;31.45;;;22.30;;
21521;SDS011;10922;45.572;10.002;2023-02-10T00:15:42;29.73;;;21.67;;
21521;SDS011;10922;45.572;10.002;2023-02-10T00:18:07;31.97;;;22.27;;
21521;SDS011;10922;45.572;10.002;2023-02-10T00:20:33;32.13;;;23.20;;
21521;SDS011;10922;45.572;10.002;2023-02-10T00:22:59;32.55;;;22.27;;
21521;SDS011;10922;45.572;10.002;2023-02-10T00:25:24;33.37;;;23.03;;
21521;SDS011;10922;45.572;10.002;2023-02-10T00:27:50;30.60;;;22.17;;
21521;SDS011;10922;45.572;10.002;2023-02-10T00:30:16;33.30;;;21.57;;
21521;SDS011;10922;45.572;10.002;2023-02-10T00:32:41;33.20;;;23.20;;
21521;SDS011;10922;45.572;10.002;2023-02-10T00:35:07;31.80;;;22.75;;
21521;SDS011;10922;45.572;10.002;2023-02-10T00:37:33;32.83;;;22.77;;
21521;SDS011;10922;45.572;10.002;2023-02-10T00:39:58;32.38;;;23.00;;
21521;SDS011;10922;45.572;10.002;2023-02-10T00:42:24;33.23;;;22.93;;
21521;SDS011;10922;45.572;10.002;2023-02-10T00:44:50;33.30;;;23.20;;
21521;SDS011;10922;45.572;10.002;2023-02-10T00:47:16;30.63;;;22.15;;
21521;SDS011;10922;45.572;10.002;2023-02-10T00:49:42;30.45;;;21.70;;
21521;SDS011;10922;45.572;10.002;2023-02-10T00:52:08;31.60;;;23.08;;
21521;SDS011;10922;45.572;10.002;2023-02-10T00:54:34;34.77;;;22.93;;
21521;SDS011;10922;45.572;10.002;2023-02-10T00:56:59;33.13;;;23.60;;
21521;SDS011;10922;45.572;10.002;2023-02-10T00:59:25;33.38;;;23.25;;
21521;SDS011;10922;45.572;10.002;2023-02-10T01:01:51;32.70;;;23.85;;
21521;SDS011;10922;45.572;10.002;2023-02-10T01:04:16;30.40;;;22.23;;
21521;SDS011;10922;45.572;10.002;2023-02-10T01:06:42;34.88;;;23.00;;
21521;SDS011;10922;45.572;10.002;2023-02-10T01:09:08;31.40;;;22.58;;
21521;SDS011;10922;45.572;10.002;2023-02-10T01:11:34;31.57;;;23.07;;
21521;SDS011;10922;45.572;10.002;2023-02-10T01:13:59;33.28;;;23.55;;
21521;SDS011;10922;45.572;10.002;2023-02-10T01:16:25;31.65;;;22.27;;
21521;SDS011;10922;45.572;10.002;2023-02-10T01:18:51;30.13;;;21.73;;
21521;SDS011;10922;45.572;10.002;2023-02-10T01:21:17;31.38;;;22.13;;
21521;SDS011;10922;45.572;10.002;2023-02-10T01:23:45;32.35;;;22.40;;
21521;SDS011;10922;45.572;10.002;2023-02-10T01:26:11;33.78;;;22.58;;
21521;SDS011;10922;45.572;10.002;2023-02-10T01:28:38;30.80;;;22.40;;
21521;SDS011;10922;45.572;10.002;2023-02-10T01:31:07;32.63;;;22.27;;
21521;SDS011;10922;45.572;10.002;2023-02-10T01:33:35;29.00;;;22.10;;
21521;SDS011;10922;45.572;10.002;2023-02-10T01:36:08;29.05;;;21.60;;
21521;SDS011;10922;45.572;10.002;2023-02-10T01:38:36;32.83;;;22.90;;
21521;SDS011;10922;45.572;10.002;2023-02-10T01:41:02;32.65;;;23.27;;
21521;SDS011;10922;45.572;10.002;2023-02-10T01:43:28;32.58;;;22.35;;
21521;SDS011;10922;45.572;10.002;2023-02-10T01:45:54;31.65;;;23.13;;
21521;SDS011;10922;45.572;10.002;2023-02-10T01:48:19;35.93;;;23.17;;
21521;SDS011;10922;45.572;10.002;2023-02-10T01:50:50;34.85;;;23.15;;
21521;SDS011;10922;45.572;10.002;2023-02-10T01:53:20;34.42;;;21.77;;
21521;SDS011;10922;45.572;10.002;2023-02-10T01:55:47;31.05;;;21.65;;
21521;SDS011;10922;45.572;10.002;2023-02-10T01:58:17;30.88;;;21.83;;
21521;SDS011;10922;45.572;10.002;2023-02-10T02:00:45;33.42;;;22.75;;
21521;SDS011;10922;45.572;10.002;2023-02-10T02:03:11;28.60;;;21.13;;
21521;SDS011;10922;45.572;10.002;2023-02-10T02:05:41;30.90;;;22.27;;
21521;SDS011;10922;45.572;10.002;2023-02-10T02:08:24;30.65;;;22.38;;
21521;SDS011;10922;45.572;10.002;2023-02-10T02:27:15;31.67;;;22.00;;
21521;SDS011;10922;45.572;10.002;2023-02-10T02:32:29;30.00;;;22.30;;
21521;SDS011;10922;45.572;10.002;2023-02-10T02:35:15;30.90;;;21.65;;
21521;SDS011;10922;45.572;10.002;2023-02-10T02:37:44;31.73;;;21.63;;
21521;SDS011;10922;45.572;10.002;2023-02-10T02:40:14;30.67;;;21.17;;
21521;SDS011;10922;45.572;10.002;2023-02-10T02:42:41;30.42;;;21.92;;
21521;SDS011;10922;45.572;10.002;2023-02-10T02:45:17;30.17;;;21.97;;
21521;SDS011;10922;45.572;10.002;2023-02-10T02:47:56;28.80;;;21.27;;
21521;SDS011;10922;45.572;10.002;2023-02-10T02:50:53;31.23;;;22.13;;
21521;SDS011;10922;45.572;10.002;2023-02-10T02:58:58;31.40;;;21.38;;
21521;SDS011;10922;45.572;10.002;2023-02-10T03:01:34;32.08;;;22.63;;
21521;SDS011;10922;45.572;10.002;2023-02-10T03:04:03;29.25;;;21.13;;
21521;SDS011;10922;45.572;10.002;2023-02-10T03:06:30;29.73;;;21.38;;
21521;SDS011;10922;45.572;10.002;2023-02-10T03:08:55;31.17;;;22.30;;
21521;SDS011;10922;45.572;10.002;2023-02-10T03:11:21;28.98;;;21.83;;
21521;SDS011;10922;45.572;10.002;2023-02-10T03:13:47;29.75;;;21.33;;
21521;SDS011;10922;45.572;10.002;2023-02-10T03:16:13;31.57;;;21.53;;
21521;SDS011;10922;45.572;10.002;2023-02-10T03:18:38;30.13;;;21.40;;
21521;SDS011;10922;45.572;10.002;2023-02-10T03:21:04;30.42;;;21.42;;
21521;SDS011;10922;45.572;10.002;2023-02-10T03:23:30;28.55;;;21.02;;
21521;SDS011;10922;45.572;10.002;2023-02-10T03:25:59;29.50;;;21.07;;
21521;SDS011;10922;45.572;10.002;2023-02-10T03:28:25;28.33;;;20.63;;
21521;SDS011;10922;45.572;10.002;2023-02-10T03:30:52;28.52;;;20.38;;
21521;SDS011;10922;45.572;10.002;2023-02-10T03:33:18;26.70;;;19.25;;
21521;SDS011;10922;45.572;10.002;2023-02-10T03:35:44;27.60;;;20.40;;
21521;SDS011;10922;45.572;10.002;2023-02-10T03:38:11;25.73;;;19.30;;
21521;SDS011;10922;45.572;10.002;2023-02-10T03:40:37;28.00;;;19.88;;
21521;SDS011;10922;45.572;10.002;2023-02-10T03:43:03;27.10;;;19.37;;
21521;SDS011;10922;45.572;10.002;2023-02-10T03:45:29;27.48;;;19.55;;
21521;SDS011;10922;45.572;10.002;2023-02-10T03:47:55;26.52;;;19.33;;
21521;SDS011;10922;45.572;10.002;2023-02-10T03:50:20;27.70;;;18.50;;
21521;SDS011;10922;45.572;10.002;2023-02-10T03:52:46;27.25;;;19.73;;
21521;SDS011;10922;45.572;10.002;2023-02-10T03:55:12;27.53;;;18.87;;
21521;SDS011;10922;45.572;10.002;2023-02-10T03:57:40;25.42;;;19.10;;
21521;SDS011;10922;45.572;10.002;2023-02-10T04:00:06;24.95;;;18.85;;
21521;SDS011;10922;45.572;10.002;2023-02-10T04:02:32;25.30;;;18.58;;
21521;SDS011;10922;45.572;10.002;2023-02-10T04:04:58;25.67;;;18.93;;
21521;SDS011;10922;45.572;10.002;2023-02-10T04:07:24;25.27;;;18.23;;
21521;SDS011;10922;45.572;10.002;2023-02-10T04:09:49;25.58;;;18.83;;
21521;SDS011;10922;45.572;10.002;2023-02-10T04:12:15;24.70;;;17.87;;
21521;SDS011;10922;45.572;10.002;2023-02-10T04:14:41;25.45;;;18.73;;
21521;SDS011;10922;45.572;10.002;2023-02-10T04:17:06;25.93;;;18.67;;
21521;SDS011;10922;45.572;10.002;2023-02-10T04:19:32;25.75;;;18.73;;
21521;SDS011;10922;45.572;10.002;2023-02-10T04:21:58;27.73;;;21.10;;
21521;SDS011;10922;45.572;10.002;2023-02-10T04:24:23;29.90;;;20.08;;
21521;SDS011;10922;45.572;10.002;2023-02-10T04:26:49;27.07;;;19.53;;
21521;SDS011;10922;45.572;10.002;2023-02-10T04:29:14;28.63;;;20.02;;
21521;SDS011;10922;45.572;10.002;2023-02-10T04:31:40;25.13;;;19.20;;
21521;SDS011;10922;45.572;10.002;2023-02-10T04:34:06;27.40;;;18.77;;
21521;SDS011;10922;45.572;10.002;2023-02-10T04:36:31;28.42;;;19.98;;
21521;SDS011;10922;45.572;10.002;2023-02-10T04:38:57;32.13;;;19.40;;
21521;SDS011;10922;45.572;10.002;2023-02-10T04:41:23;28.33;;;19.63;;
21521;SDS011;10922;45.572;10.002;2023-02-10T04:43:48;27.60;;;18.90;;
21521;SDS011;10922;45.572;10.002;2023-02-10T04:46:14;29.00;;;19.35;;
21521;SDS011;10922;45.572;10.002;2023-02-10T04:48:40;27.85;;;19.60;;
21521;SDS011;10922;45.572;10.002;2023-02-10T04:51:08;26.23;;;19.80;;
21521;SDS011;10922;45.572;10.002;2023-02-10T04:53:36;27.15;;;18.90;;
21521;SDS011;10922;45.572;10.002;2023-02-10T04:56:02;29.50;;;20.27;;
21521;SDS011;10922;45.572;10.002;2023-02-10T04:58:29;28.60;;;20.40;;
21521;SDS011;10922;45.572;10.002;2023-02-10T05:00:55;29.50;;;20.67;;
21521;SDS011;10922;45.572;10.002;2023-02-10T05:03:22;29.80;;;20.17;;
21521;SDS011;10922;45.572;10.002;2023-02-10T05:05:48;28.88;;;19.63;;
21521;SDS011;10922;45.572;10.002;2023-02-10T05:08:16;30.10;;;21.00;;
21521;SDS011;10922;45.572;10.002;2023-02-10T05:10:45;32.60;;;21.38;;
21521;SDS011;10922;45.572;10.002;2023-02-10T05:13:12;29.65;;;19.90;;
21521;SDS011;10922;45.572;10.002;2023-02-10T05:15:37;27.53;;;19.80;;
21521;SDS011;10922;45.572;10.002;2023-02-10T05:18:03;29.30;;;20.95;;
21521;SDS011;10922;45.572;10.002;2023-02-10T05:20:29;33.30;;;21.50;;
21521;SDS011;10922;45.572;10.002;2023-02-10T05:22:54;30.52;;;20.92;;
21521;SDS011;10922;45.572;10.002;2023-02-10T05:25:20;31.70;;;21.48;;
21521;SDS011;10922;45.572;10.002;2023-02-10T05:27:46;32.93;;;21.47;;
21521;SDS011;10922;45.572;10.002;2023-02-10T05:30:11;31.65;;;22.17;;
21521;SDS011;10922;45.572;10.002;2023-02-10T05:32:38;36.22;;;23.73;;
21521;SDS011;10922;45.572;10.002;2023-02-10T05:35:04;32.63;;;22.70;;
21521;SDS011;10922;45.572;10.002;2023-02-10T05:37:30;33.73;;;23.40;;
21521;SDS011;10922;45.572;10.002;2023-02-10T05:39:56;32.97;;;22.85;;
21521;SDS011;10922;45.572;10.002;2023-02-10T05:42:21;34.30;;;23.17;;
21521;SDS011;10922;45.572;10.002;2023-02-10T05:44:47;36.33;;;22.80;;
21521;SDS011;10922;45.572;10.002;2023-02-10T05:47:13;33.17;;;22.70;;
21521;SDS011;10922;45.572;10.002;2023-02-10T05:49:38;31.00;;;21.80;;
21521;SDS011;10922;45.572;10.002;2023-02-10T05:52:04;32.15;;;21.63;;
21521;SDS011;10922;45.572;10.002;2023-02-10T05:54:29;36.40;;;22.57;;
21521;SDS011;10922;45.572;10.002;2023-02-10T05:56:55;36.25;;;22.92;;
21521;SDS011;10922;45.572;10.002;2023-02-10T05:59:21;36.00;;;22.67;;
21521;SDS011;10922;45.572;10.002;2023-02-10T06:01:47;31.52;;;23.67;;
21521;SDS011;10922;45.572;10.002;2023-02-10T06:04:12;32.72;;;22.42;;
21521;SDS011;10922;45.572;10.002;2023-02-10T06:06:38;37.78;;;23.67;;
21521;SDS011;10922;45.572;10.002;2023-02-10T06:09:04;35.30;;;22.93;;
21521;SDS011;10922;45.572;10.002;2023-02-10T06:11:30;33.20;;;22.37;;
21521;SDS011;10922;45.572;10.002;2023-02-10T06:13:56;31.80;;;20.85;;
21521;SDS011;10922;45.572;10.002;2023-02-10T06:16:22;35.75;;;22.65;;
21521;SDS011;10922;45.572;10.002;2023-02-10T06:18:47;35.22;;;22.45;;
21521;SDS011;10922;45.572;10.002;2023-02-10T06:21:14;32.40;;;20.70;;
21521;SDS011;10922;45.572;10.002;2023-02-10T06:23:41;34.67;;;22.13;;
21521;SDS011;10922;45.572;10.002;2023-02-10T06:26:06;34.63;;;21.47;;
21521;SDS011;10922;45.572;10.002;2023-02-10T06:28:32;32.35;;;21.08;;
21521;SDS011;10922;45.572;10.002;2023-02-10T06:30:58;37.80;;;22.27;;
21521;SDS011;10922;45.572;10.002;2023-02-10T06:33:24;37.13;;;21.27;;
21521;SDS011;10922;45.572;10.002;2023-02-10T06:35:50;29.73;;;19.60;;
21521;SDS011;10922;45.572;10.002;2023-02-10T06:38:16;33.05;;;18.77;;
21521;SDS011;10922;45.572;10.002;2023-02-10T06:40:41;30.70;;;17.90;;
21521;SDS011;10922;45.572;10.002;2023-02-10T06:43:07;31.87;;;19.97;;
21521;SDS011;10922;45.572;10.002;2023-02-10T06:45:33;33.30;;;19.93;;
21521;SDS011;10922;45.572;10.002;2023-02-10T06:48:00;32.90;;;20.25;;
21521;SDS011;10922;45.572;10.002;2023-02-10T06:50:28;28.80;;;19.10;;
21521;SDS011;10922;45.572;10.002;2023-02-10T06:52:54;30.20;;;19.00;;
21521;SDS011;10922;45.572;10.002;2023-02-10T06:55:20;31.17;;;19.47;;
21521;SDS011;10922;45.572;10.002;2023-02-10T06:57:45;30.65;;;20.65;;
21521;SDS011;10922;45.572;10.002;2023-02-10T07:00:14;30.80;;;20.23;;
21521;SDS011;10922;45.572;10.002;2023-02-10T07:02:40;29.88;;;19.75;;
21521;SDS011;10922;45.572;10.002;2023-02-10T07:05:06;33.22;;;20.05;;
21521;SDS011;10922;45.572;10.002;2023-02-10T07:07:33;30.30;;;20.83;;
21521;SDS011;10922;45.572;10.002;2023-02-10T07:09:59;37.63;;;22.60;;
21521;SDS011;10922;45.572;10.002;2023-02-10T07:12:25;34.15;;;21.45;;
21521;SDS011;10922;45.572;10.002;2023-02-10T07:14:51;32.50;;;21.02;;
21521;SDS011;10922;45.572;10.002;2023-02-10T07:17:17;38.78;;;22.30;;
21521;SDS011;10922;45.572;10.002;2023-02-10T07:19:43;36.38;;;22.50;;
21521;SDS011;10922;45.572;10.002;2023-02-10T07:22:09;38.25;;;23.05;;
21521;SDS011;10922;45.572;10.002;2023-02-10T07:24:35;40.17;;;22.53;;
21521;SDS011;10922;45.572;10.002;2023-02-10T07:27:01;49.85;;;23.77;;
21521;SDS011;10922;45.572;10.002;2023-02-10T07:29:27;49.67;;;24.48;;
21521;SDS011;10922;45.572;10.002;2023-02-10T07:31:53;48.55;;;25.10;;
21521;SDS011;10922;45.572;10.002;2023-02-10T07:34:19;47.90;;;26.73;;
21521;SDS011;10922;45.572;10.002;2023-02-10T07:36:46;53.83;;;31.05;;
21521;SDS011;10922;45.572;10.002;2023-02-10T07:39:18;49.65;;;27.27;;
21521;SDS011;10922;45.572;10.002;2023-02-10T07:41:48;56.33;;;31.35;;
21521;SDS011;10922;45.572;10.002;2023-02-10T07:44:13;54.93;;;29.63;;
21521;SDS011;10922;45.572;10.002;2023-02-10T07:46:39;51.75;;;30.63;;
21521;SDS011;10922;45.572;10.002;2023-02-10T07:49:05;53.25;;;32.53;;
21521;SDS011;10922;45.572;10.002;2023-02-10T07:51:31;49.37;;;30.63;;
21521;SDS011;10922;45.572;10.002;2023-02-10T07:53:56;46.05;;;27.73;;
21521;SDS011;10922;45.572;10.002;2023-02-10T07:56:22;47.25;;;27.35;;
21521;SDS011;10922;45.572;10.002;2023-02-10T07:58:48;45.23;;;27.47;;
21521;SDS011;10922;45.572;10.002;2023-02-10T08:01:13;46.42;;;27.63;;
21521;SDS011;10922;45.572;10.002;2023-02-10T08:03:39;42.97;;;28.83;;
21521;SDS011;10922;45.572;10.002;2023-02-10T08:06:05;42.93;;;26.33;;
21521;SDS011;10922;45.572;10.002;2023-02-10T08:08:31;48.00;;;26.25;;
21521;SDS011;10922;45.572;10.002;2023-02-10T08:10:57;40.90;;;25.00;;
21521;SDS011;10922;45.572;10.002;2023-02-10T08:13:23;33.40;;;22.08;;
21521;SDS011;10922;45.572;10.002;2023-02-10T08:15:49;35.75;;;23.13;;
21521;SDS011;10922;45.572;10.002;2023-02-10T08:18:15;37.15;;;24.45;;
21521;SDS011;10922;45.572;10.002;2023-02-10T08:20:41;35.13;;;24.10;;
21521;SDS011;10922;45.572;10.002;2023-02-10T08:23:07;38.27;;;24.63;;
21521;SDS011;10922;45.572;10.002;2023-02-10T08:25:39;34.65;;;24.17;;
21521;SDS011;10922;45.572;10.002;2023-02-10T08:28:04;38.78;;;26.08;;
21521;SDS011;10922;45.572;10.002;2023-02-10T08:30:30;38.50;;;25.40;;
21521;SDS011;10922;45.572;10.002;2023-02-10T08:32:56;42.45;;;25.42;;
21521;SDS011;10922;45.572;10.002;2023-02-10T08:35:23;43.65;;;26.65;;
21521;SDS011;10922;45.572;10.002;2023-02-10T08:37:49;42.53;;;27.17;;
21521;SDS011;10922;45.572;10.002;2023-02-10T08:40:16;38.88;;;26.20;;
21521;SDS011;10922;45.572;10.002;2023-02-10T08:42:42;41.10;;;26.40;;
21521;SDS011;10922;45.572;10.002;2023-02-10T08:45:08;37.90;;;25.25;;
21521;SDS011;10922;45.572;10.002;2023-02-10T08:47:34;38.13;;;25.27;;
21521;SDS011;10922;45.572;10.002;2023-02-10T08:50:00;37.42;;;25.63;;
21521;SDS011;10922;45.572;10.002;2023-02-10T08:52:26;37.78;;;24.85;;
21521;SDS011;10922;45.572;10.002;2023-02-10T08:54:51;34.17;;;23.17;;
21521;SDS011;10922;45.572;10.002;2023-02-10T08:57:17;36.25;;;23.83;;
21521;SDS011;10922;45.572;10.002;2023-02-10T08:59:44;32.85;;;23.73;;
21521;SDS011;10922;45.572;10.002;2023-02-10T09:02:13;36.33;;;24.15;;
21521;SDS011;10922;45.572;10.002;2023-02-10T09:04:39;34.80;;;23.75;;
21521;SDS011;10922;45.572;10.002;2023-02-10T09:07:06;37.75;;;23.50;;
21521;SDS011;10922;45.572;10.002;2023-02-10T09:09:35;34.67;;;22.92;;
21521;SDS011;10922;45.572;10.002;2023-02-10T09:12:06;36.97;;;23.23;;
21521;SDS011;10922;45.572;10.002;2023-02-10T09:14:35;34.42;;;23.05;;
21521;SDS011;10922;45.572;10.002;2023-02-10T09:17:01;35.20;;;22.60;;
21521;SDS011;10922;45.572;10.002;2023-02-10T09:19:27;37.83;;;23.58;;
21521;SDS011;10922;45.572;10.002;2023-02-10T09:21:53;30.73;;;21.25;;
21521;SDS011;10922;45.572;10.002;2023-02-10T09:24:20;29.30;;;20.20;;
21521;SDS011;10922;45.572;10.002;2023-02-10T09:26:46;29.02;;;20.05;;
21521;SDS011;10922;45.572;10.002;2023-02-10T09:29:12;29.03;;;20.20;;
21521;SDS011;10922;45.572;10.002;2023-02-10T09:31:38;27.88;;;19.55;;
21521;SDS011;10922;45.572;10.002;2023-02-10T09:34:03;27.35;;;19.67;;
21521;SDS011;10922;45.572;10.002;2023-02-10T09:36:29;26.40;;;18.75;;
21521;SDS011;10922;45.572;10.002;2023-02-10T09:38:55;26.27;;;18.65;;
21521;SDS011;10922;45.572;10.002;2023-02-10T09:54:54;22.58;;;17.23;;
21521;SDS011;10922;45.572;10.002;2023-02-10T09:57:21;23.63;;;16.60;;
21521;SDS011;10922;45.572;10.002;2023-02-10T09:59:57;24.52;;;17.60;;
21521;SDS011;10922;45.572;10.002;2023-02-10T10:02:26;25.53;;;17.33;;
21521;SDS011;10922;45.572;10.002;2023-02-10T10:04:56;23.45;;;17.38;;
21521;SDS011;10922;45.572;10.002;2023-02-10T10:07:26;23.08;;;17.27;;
21521;SDS011;10922;45.572;10.002;2023-02-10T10:12:25;27.70;;;19.05;;
21521;SDS011;10922;45.572;10.002;2023-02-10T10:14:52;31.10;;;19.83;;
21521;SDS011;10922;45.572;10.002;2023-02-10T10:20:28;26.23;;;18.20;;
21521;SDS011;10922;45.572;10.002;2023-02-10T10:32:00;22.40;;;16.00;;
21521;SDS011;10922;45.572;10.002;2023-02-10T10:34:37;21.85;;;16.58;;
21521;SDS011;10922;45.572;10.002;2023-02-10T10:37:11;28.50;;;17.60;;
21521;SDS011;10922;45.572;10.002;2023-02-10T10:39:42;27.27;;;17.83;;
21521;SDS011;10922;45.572;10.002;2023-02-10T10:42:21;26.52;;;18.38;;
21521;SDS011;10922;45.572;10.002;2023-02-10T10:44:51;25.60;;;16.85;;
21521;SDS011;10922;45.572;10.002;2023-02-10T10:47:40;24.50;;;17.42;;
21521;SDS011;10922;45.572;10.002;2023-02-10T10:50:12;21.77;;;17.23;;
21521;SDS011;10922;45.572;10.002;2023-02-10T10:52:45;23.30;;;17.30;;
21521;SDS011;10922;45.572;10.002;2023-02-10T10:55:38;25.48;;;17.48;;
21521;SDS011;10922;45.572;10.002;2023-02-10T10:58:26;23.08;;;15.55;;
21521;SDS011;10922;45.572;10.002;2023-02-10T11:00:56;22.40;;;15.77;;
21521;SDS011;10922;45.572;10.002;2023-02-10T11:03:23;25.13;;;17.20;;
21521;SDS011;10922;45.572;10.002;2023-02-10T11:06:23;22.75;;;17.02;;
21521;SDS011;10922;45.572;10.002;2023-02-10T11:08:51;24.42;;;17.10;;
21521;SDS011;10922;45.572;10.002;2023-02-10T11:11:37;23.77;;;16.50;;
21521;SDS011;10922;45.572;10.002;2023-02-10T11:14:12;23.10;;;16.30;;
21521;SDS011;10922;45.572;10.002;2023-02-10T11:16:48;24.00;;;17.13;;
21521;SDS011;10922;45.572;10.002;2023-02-10T11:19:34;27.20;;;17.05;;
21521;SDS011;10922;45.572;10.002;2023-02-10T11:22:00;21.10;;;16.13;;
21521;SDS011;10922;45.572;10.002;2023-02-10T11:24:29;24.40;;;16.80;;
21521;SDS011;10922;45.572;10.002;2023-02-10T11:26:58;24.33;;;16.80;;
21521;SDS011;10922;45.572;10.002;2023-02-10T11:29:51;22.08;;;16.02;;
21521;SDS011;10922;45.572;10.002;2023-02-10T11:32:20;21.30;;;16.00;;
21521;SDS011;10922;45.572;10.002;2023-02-10T11:34:46;21.88;;;16.85;;
21521;SDS011;10922;45.572;10.002;2023-02-10T11:39:49;23.08;;;16.67;;
21521;SDS011;10922;45.572;10.002;2023-02-10T11:44:51;22.08;;;16.17;;
21521;SDS011;10922;45.572;10.002;2023-02-10T11:47:35;23.08;;;17.42;;
21521;SDS011;10922;45.572;10.002;2023-02-10T11:50:02;23.10;;;17.45;;
21521;SDS011;10922;45.572;10.002;2023-02-10T11:52:43;23.45;;;16.63;;
21521;SDS011;10922;45.572;10.002;2023-02-10T11:55:11;23.37;;;16.90;;
21521;SDS011;10922;45.572;10.002;2023-02-10T12:00:54;29.30;;;19.97;;
21521;SDS011;10922;45.572;10.002;2023-02-10T12:06:40;27.00;;;20.95;;
21521;SDS011;10922;45.572;10.002;2023-02-10T12:18:06;28.00;;;19.65;;
21521;SDS011;10922;45.572;10.002;2023-02-10T12:20:50;29.63;;;20.52;;
21521;SDS011;10922;45.572;10.002;2023-02-10T12:36:52;33.72;;;22.60;;
21521;SDS011;10922;45.572;10.002;2023-02-10T12:39:31;30.52;;;21.63;;
21521;SDS011;10922;45.572;10.002;2023-02-10T12:44:53;30.75;;;21.67;;
21521;SDS011;10922;45.572;10.002;2023-02-10T12:47:29;31.42;;;21.30;;
21521;SDS011;10922;45.572;10.002;2023-02-10T12:53:17;30.95;;;21.88;;
21521;SDS011;10922;45.572;10.002;2023-02-10T12:55:59;29.45;;;21.77;;
21521;SDS011;10922;45.572;10.002;2023-02-10T12:58:43;30.23;;;20.83;;
21521;SDS011;10922;45.572;10.002;2023-02-10T13:01:23;29.88;;;22.00;;
21521;SDS011;10922;45.572;10.002;2023-02-10T13:07:05;29.57;;;22.17;;
21521;SDS011;10922;45.572;10.002;2023-02-10T13:09:45;29.77;;;22.30;;
21521;SDS011;10922;45.572;10.002;2023-02-10T13:12:21;29.80;;;21.65;;
21521;SDS011;10922;45.572;10.002;2023-02-10T13:14:52;27.80;;;22.15;;
21521;SDS011;10922;45.572;10.002;2023-02-10T13:17:50;28.60;;;22.38;;
21521;SDS011;10922;45.572;10.002;2023-02-10T14:11:38;24.40;;;19.70;;
21521;SDS011;10922;45.572;10.002;2023-02-10T14:19:45;27.60;;;20.97;;
21521;SDS011;10922;45.572;10.002;2023-02-10T14:22:48;27.97;;;20.43;;
21521;SDS011;10922;45.572;10.002;2023-02-10T14:25:27;25.65;;;19.95;;
21521;SDS011;10922;45.572;10.002;2023-02-10T14:28:02;26.40;;;20.52;;
21521;SDS011;10922;45.572;10.002;2023-02-10T14:30:39;26.48;;;19.98;;
21521;SDS011;10922;45.572;10.002;2023-02-10T14:33:21;26.85;;;20.27;;
21521;SDS011;10922;45.572;10.002;2023-02-10T14:35:58;27.48;;;20.23;;
21521;SDS011;10922;45.572;10.002;2023-02-10T14:38:31;28.13;;;21.08;;
21521;SDS011;10922;45.572;10.002;2023-02-10T14:41:01;28.25;;;21.42;;
21521;SDS011;10922;45.572;10.002;2023-02-10T14:43:28;28.67;;;20.67;;
21521;SDS011;10922;45.572;10.002;2023-02-10T15:09:19;28.08;;;19.88;;
21521;SDS011;10922;45.572;10.002;2023-02-10T15:24:44;27.25;;;20.08;;
21521;SDS011;10922;45.572;10.002;2023-02-10T15:27:16;28.95;;;20.83;;
21521;SDS011;10922;45.572;10.002;2023-02-10T15:29:43;29.38;;;20.42;;
21521;SDS011;10922;45.572;10.002;2023-02-10T15:32:21;27.27;;;20.63;;
21521;SDS011;10922;45.572;10.002;2023-02-10T15:34:47;29.00;;;20.87;;
21521;SDS011;10922;45.572;10.002;2023-02-10T15:37:24;29.98;;;21.20;;
21521;SDS011;10922;45.572;10.002;2023-02-10T15:39:58;29.73;;;21.20;;
21521;SDS011;10922;45.572;10.002;2023-02-10T15:42:26;28.38;;;21.13;;
21521;SDS011;10922;45.572;10.002;2023-02-10T15:45:00;27.90;;;20.58;;
21521;SDS011;10922;45.572;10.002;2023-02-10T15:47:40;31.25;;;20.95;;
21521;SDS011;10922;45.572;10.002;2023-02-10T15:50:10;28.70;;;20.83;;
21521;SDS011;10922;45.572;10.002;2023-02-10T15:52:39;29.37;;;20.93;;
21521;SDS011;10922;45.572;10.002;2023-02-10T15:55:13;29.20;;;21.38;;
21521;SDS011;10922;45.572;10.002;2023-02-10T15:57:49;32.30;;;22.60;;
21521;SDS011;10922;45.572;10.002;2023-02-10T16:00:20;34.03;;;23.10;;
21521;SDS011;10922;45.572;10.002;2023-02-10T16:02:48;33.47;;;23.08;;
21521;SDS011;10922;45.572;10.002;2023-02-10T16:05:14;31.67;;;21.40;;
21521;SDS011;10922;45.572;10.002;2023-02-10T16:07:39;29.73;;;21.43;;
21521;SDS011;10922;45.572;10.002;2023-02-10T16:10:05;35.80;;;22.73;;
21521;SDS011;10922;45.572;10.002;2023-02-10T16:12:37;33.03;;;22.65;;
21521;SDS011;10922;45.572;10.002;2023-02-10T16:15:03;30.53;;;21.17;;
21521;SDS011;10922;45.572;10.002;2023-02-10T16:17:29;32.20;;;22.00;;
21521;SDS011;10922;45.572;10.002;2023-02-10T16:20:03;33.85;;;22.48;;
21521;SDS011;10922;45.572;10.002;2023-02-10T16:22:30;31.58;;;21.55;;
21521;SDS011;10922;45.572;10.002;2023-02-10T16:24:55;32.53;;;22.17;;
21521;SDS011;10922;45.572;10.002;2023-02-10T16:27:21;37.67;;;22.43;;
21521;SDS011;10922;45.572;10.002;2023-02-10T16:29:47;32.13;;;22.08;;
21521;SDS011;10922;45.572;10.002;2023-02-10T16:32:13;34.92;;;23.77;;
21521;SDS011;10922;45.572;10.002;2023-02-10T16:34:38;34.60;;;22.83;;
21521;SDS011;10922;45.572;10.002;2023-02-10T16:37:04;34.50;;;22.27;;
21521;SDS011;10922;45.572;10.002;2023-02-10T16:39:30;34.70;;;21.97;;
21521;SDS011;10922;45.572;10.002;2023-02-10T16:41:56;34.33;;;22.65;;
21521;SDS011;10922;45.572;10.002;2023-02-10T16:44:22;34.80;;;22.63;;
21521;SDS011;10922;45.572;10.002;2023-02-10T16:46:48;35.97;;;23.10;;
21521;SDS011;10922;45.572;10.002;2023-02-10T16:49:14;35.83;;;23.50;;
21521;SDS011;10922;45.572;10.002;2023-02-10T16:51:41;34.57;;;23.70;;
21521;SDS011;10922;45.572;10.002;2023-02-10T16:54:08;34.95;;;22.98;;
21521;SDS011;10922;45.572;10.002;2023-02-10T16:56:35;33.95;;;23.35;;
21521;SDS011;10922;45.572;10.002;2023-02-10T16:59:04;38.83;;;23.77;;
21521;SDS011;10922;45.572;10.002;2023-02-10T17:01:31;32.97;;;22.40;;
21521;SDS011;10922;45.572;10.002;2023-02-10T17:03:57;35.08;;;23.13;;
21521;SDS011;10922;45.572;10.002;2023-02-10T17:06:24;37.95;;;23.15;;
21521;SDS011;10922;45.572;10.002;2023-02-10T17:08:50;33.80;;;23.02;;
21521;SDS011;10922;45.572;10.002;2023-02-10T17:11:16;33.23;;;23.10;;
21521;SDS011;10922;45.572;10.002;2023-02-10T17:13:42;32.80;;;21.60;;
21521;SDS011;10922;45.572;10.002;2023-02-10T17:18:53;39.03;;;24.52;;
21521;SDS011;10922;45.572;10.002;2023-02-10T17:21:20;34.42;;;22.75;;
21521;SDS011;10922;45.572;10.002;2023-02-10T17:23:45;36.78;;;23.05;;
21521;SDS011;10922;45.572;10.002;2023-02-10T17:26:11;33.97;;;23.90;;
21521;SDS011;10922;45.572;10.002;2023-02-10T17:28:36;37.55;;;23.52;;
21521;SDS011;10922;45.572;10.002;2023-02-10T17:31:02;35.58;;;24.45;;